Russell, New York
Current Conditions -  °F | °C
As of 2:53 PM on Monday 26 Jan 2015 (Local Time) from KMSS Reporting Station
Clear Clear  
Wind Chill: -13°   Ceiling: Unl
Heat Index:   Visibility: 10mi
Dew Point: -4°   Wind: 20mph
Humidity: 61%   Direction: 40°NE
Pressure: 30.13"   Gusts: NA
Location:  44.43°N, 75.15°W
Report Text: KMSS 261953Z AUTO 04017KT 10SM CLR M14/M20 A3013 RMK AO2 SLP216 T11391200
Loading
Personal Weather Stations






























Interactive Weather Map New forecast layout! Learn more

10-Day Weather Forecast

Advertisements
Track Severe Weather on mobile